createdAt,value
2018-06-29T00:00:13.946Z,0
2018-06-29T00:01:14.195Z,0
2018-06-29T00:02:14.190Z,0
2018-06-29T00:03:14.194Z,0
2018-06-29T00:04:14.192Z,0
2018-06-29T00:05:14.188Z,0
2018-06-29T00:06:14.182Z,0
2018-06-29T00:07:13.917Z,0
2018-06-29T00:08:14.179Z,0
2018-06-29T00:09:14.165Z,0
2018-06-29T00:10:13.922Z,0
2018-06-29T00:11:14.015Z,0
2018-06-29T00:12:14.166Z,0
2018-06-29T00:13:13.893Z,0
2018-06-29T00:14:13.906Z,0
2018-06-29T00:15:14.143Z,0
2018-06-29T00:16:14.388Z,0
2018-06-29T00:17:13.885Z,0
2018-06-29T00:18:14.129Z,0
2018-06-29T00:19:14.139Z,0
2018-06-29T00:20:13.874Z,0
2018-06-29T00:21:14.132Z,0
2018-06-29T00:22:14.121Z,0
2018-06-29T00:23:14.268Z,0
2018-06-29T00:24:14.106Z,0
2018-06-29T00:25:14.104Z,0
2018-06-29T00:26:13.860Z,0
2018-06-29T00:27:14.100Z,0
2018-06-29T00:28:14.091Z,0
2018-06-29T00:29:14.110Z,0
2018-06-29T00:30:13.834Z,0
2018-06-29T00:31:14.085Z,0
2018-06-29T00:32:13.833Z,0
2018-06-29T00:33:14.097Z,0
2018-06-29T00:34:14.068Z,0
2018-06-29T00:35:14.072Z,0
2018-06-29T00:36:14.070Z,0
2018-06-29T00:37:14.064Z,0
2018-06-29T00:38:13.802Z,0
2018-06-29T00:39:13.800Z,0
2018-06-29T00:40:14.046Z,0
2018-06-29T00:41:14.049Z,0
2018-06-29T00:42:14.053Z,0
2018-06-29T00:43:14.039Z,0
2018-06-29T00:44:13.779Z,0
2018-06-29T00:45:14.028Z,0
2018-06-29T00:46:14.030Z,0
2018-06-29T00:47:14.271Z,0
2018-06-29T00:48:14.019Z,0
2018-06-29T00:49:14.019Z,0
2018-06-29T00:50:14.012Z,0
2018-06-29T00:51:14.004Z,0
2018-06-29T00:52:14.004Z,0
2018-06-29T00:53:13.750Z,0
2018-06-29T00:54:14.011Z,0
2018-06-29T00:55:14.117Z,0
2018-06-29T00:56:13.738Z,0
2018-06-29T00:57:13.989Z,0
2018-06-29T00:58:13.985Z,0
2018-06-29T00:59:13.725Z,0
2018-06-29T01:00:13.731Z,0
2018-06-29T01:01:13.970Z,0
2018-06-29T01:02:13.713Z,0
2018-06-29T01:03:13.458Z,0
2018-06-29T01:04:13.963Z,0
2018-06-29T01:05:13.957Z,0
2018-06-29T01:06:13.708Z,0
2018-06-29T01:07:13.945Z,0
2018-06-29T01:08:14.086Z,0
2018-06-29T01:09:13.682Z,0
2018-06-29T01:10:13.684Z,0
2018-06-29T01:11:13.932Z,0
2018-06-29T01:12:13.670Z,0
2018-06-29T01:13:13.921Z,0
2018-06-29T01:14:13.964Z,0
2018-06-29T01:15:13.917Z,0
2018-06-29T01:16:13.914Z,0
2018-06-29T01:17:13.654Z,0
2018-06-29T01:18:14.152Z,0
2018-06-29T01:19:13.911Z,0
2018-06-29T01:20:13.890Z,0
2018-06-29T01:21:13.644Z,0
2018-06-29T01:22:13.635Z,0
2018-06-29T01:23:15.560Z,0
2018-06-29T01:24:13.880Z,0
2018-06-29T01:25:13.620Z,0
2018-06-29T01:26:13.614Z,0
2018-06-29T01:27:13.616Z,0
2018-06-29T01:28:13.859Z,0
2018-06-29T01:29:13.863Z,0
2018-06-29T01:30:13.858Z,0
2018-06-29T01:31:13.862Z,0
2018-06-29T01:32:13.848Z,0
2018-06-29T01:33:13.879Z,0
2018-06-29T01:34:13.838Z,0
2018-06-29T01:35:13.824Z,0
2018-06-29T01:36:13.823Z,0
2018-06-29T01:37:13.574Z,0
2018-06-29T01:38:13.819Z,0
2018-06-29T01:39:13.810Z,0
2018-06-29T01:40:13.878Z,0
2018-06-29T01:41:13.805Z,0
2018-06-29T01:42:13.545Z,0
2018-06-29T01:43:13.807Z,0
2018-06-29T01:44:13.542Z,0
2018-06-29T01:45:13.788Z,0
2018-06-29T01:46:13.785Z,0
2018-06-29T01:47:13.777Z,0
2018-06-29T01:48:13.772Z,0
2018-06-29T01:49:13.791Z,0
2018-06-29T01:50:13.260Z,0
2018-06-29T01:51:13.766Z,0
2018-06-29T01:52:13.895Z,0
2018-06-29T01:53:13.762Z,4
2018-06-29T01:54:13.748Z,4
2018-06-29T01:55:13.779Z,4
2018-06-29T01:56:13.236Z,4
2018-06-29T01:57:13.486Z,0
2018-06-29T01:58:13.733Z,0
2018-06-29T01:59:13.728Z,4
2018-06-29T02:00:13.474Z,4
2018-06-29T02:01:13.465Z,4
2018-06-29T02:02:13.467Z,4
2018-06-29T02:03:13.206Z,4
2018-06-29T02:04:13.703Z,8
2018-06-29T02:05:13.713Z,4
2018-06-29T02:06:13.445Z,8
2018-06-29T02:07:13.438Z,4
2018-06-29T02:08:13.960Z,8
2018-06-29T02:09:13.685Z,8
2018-06-29T02:10:13.682Z,12
2018-06-29T02:11:13.427Z,12
2018-06-29T02:12:13.165Z,12
2018-06-29T02:13:13.182Z,16
2018-06-29T02:14:13.666Z,16
2018-06-29T02:15:13.654Z,16
2018-06-29T02:16:13.653Z,20
2018-06-29T02:17:13.650Z,20
2018-06-29T02:18:13.145Z,24
2018-06-29T02:19:13.645Z,28
2018-06-29T02:20:13.638Z,32
2018-06-29T02:21:13.631Z,32
2018-06-29T02:22:13.625Z,40
2018-06-29T02:23:13.369Z,40
2018-06-29T02:24:13.632Z,44
2018-06-29T02:25:13.628Z,52
2018-06-29T02:26:13.613Z,60
2018-06-29T02:27:13.354Z,64
2018-06-29T02:28:13.598Z,72
2018-06-29T02:29:13.713Z,76
2018-06-29T02:30:13.345Z,84
2018-06-29T02:31:13.588Z,92
2018-06-29T02:32:13.115Z,104
2018-06-29T02:33:13.337Z,112
2018-06-29T02:34:13.580Z,120
2018-06-29T02:35:13.587Z,136
2018-06-29T02:36:12.814Z,144
2018-06-29T02:37:13.323Z,160
2018-06-29T02:38:13.075Z,172
2018-06-29T02:39:13.563Z,188
2018-06-29T02:40:13.312Z,204
2018-06-29T02:41:13.553Z,224
2018-06-29T02:42:13.540Z,244
2018-06-29T02:43:13.556Z,260
2018-06-29T02:44:13.533Z,280
2018-06-29T02:45:13.284Z,300
2018-06-29T02:46:13.522Z,324
2018-06-29T02:47:13.268Z,348
2018-06-29T02:48:13.520Z,376
2018-06-29T02:49:13.513Z,400
2018-06-29T02:50:13.004Z,424
2018-06-29T02:51:13.512Z,460
2018-06-29T02:52:13.499Z,488
2018-06-29T02:53:12.989Z,520
2018-06-29T02:54:13.491Z,556
2018-06-29T02:55:13.229Z,584
2018-06-29T02:56:13.496Z,616
2018-06-29T02:57:13.230Z,644
2018-06-29T02:58:13.475Z,672
2018-06-29T02:59:13.212Z,704
2018-06-29T03:00:13.210Z,744
2018-06-29T03:01:13.221Z,788
2018-06-29T03:02:12.947Z,840
2018-06-29T03:03:12.953Z,904
2018-06-29T03:04:13.461Z,968
2018-06-29T03:05:13.441Z,1036
2018-06-29T03:06:13.436Z,1104
2018-06-29T03:07:13.173Z,1168
2018-06-29T03:08:13.426Z,1236
2018-06-29T03:09:13.179Z,1300
2018-06-29T03:10:13.160Z,1368
2018-06-29T03:11:13.433Z,1432
2018-06-29T03:12:13.208Z,1500
2018-06-29T03:13:13.154Z,1564
2018-06-29T03:14:13.140Z,1632
2018-06-29T03:15:13.140Z,1700
2018-06-29T03:16:13.391Z,1772
2018-06-29T03:17:13.133Z,1848
2018-06-29T03:18:13.432Z,1928
2018-06-29T03:19:13.372Z,2008
2018-06-29T03:20:13.122Z,2104
2018-06-29T03:21:13.372Z,2188
2018-06-29T03:22:13.374Z,2284
2018-06-29T03:23:13.610Z,2432
2018-06-29T03:24:13.101Z,2584
2018-06-29T03:25:13.660Z,2732
2018-06-29T03:26:13.092Z,2876
2018-06-29T03:27:13.340Z,2980
2018-06-29T03:28:13.336Z,3092
2018-06-29T03:29:13.334Z,3256
2018-06-29T03:30:12.833Z,3408
2018-06-29T03:31:13.069Z,3516
2018-06-29T03:32:13.072Z,3616
2018-06-29T03:33:13.560Z,3768
2018-06-29T03:34:13.061Z,3944
2018-06-29T03:35:13.055Z,4140
2018-06-29T03:36:13.318Z,4300
2018-06-29T03:37:13.052Z,4380
2018-06-29T03:38:12.790Z,4504
2018-06-29T03:39:13.036Z,4652
2018-06-29T03:40:13.105Z,4812
2018-06-29T03:41:13.032Z,4920
2018-06-29T03:42:13.028Z,5068
2018-06-29T03:43:13.285Z,5188
2018-06-29T03:44:13.024Z,5352
2018-06-29T03:45:13.273Z,5516
2018-06-29T03:46:13.015Z,5652
2018-06-29T03:47:13.013Z,5856
2018-06-29T03:48:13.351Z,6036
2018-06-29T03:49:13.013Z,6188
2018-06-29T03:50:13.262Z,6232
2018-06-29T03:51:13.006Z,6424
2018-06-29T03:52:13.285Z,6800
2018-06-29T03:53:13.249Z,7072
2018-06-29T03:54:12.993Z,7056
2018-06-29T03:55:12.998Z,7216
2018-06-29T03:56:12.994Z,7368
2018-06-29T03:57:13.244Z,7556
2018-06-29T03:58:12.989Z,7576
2018-06-29T03:59:12.988Z,7764
2018-06-29T04:00:13.241Z,7876
2018-06-29T04:01:13.267Z,8024
2018-06-29T04:02:12.990Z,8168
2018-06-29T04:03:13.001Z,8308
2018-06-29T04:04:13.236Z,8388
2018-06-29T04:05:13.240Z,8496
2018-06-29T04:06:13.266Z,8652
2018-06-29T04:07:12.732Z,8960
2018-06-29T04:08:13.236Z,9264
2018-06-29T04:09:13.235Z,9488
2018-06-29T04:10:12.990Z,9952
2018-06-29T04:11:12.985Z,10272
2018-06-29T04:12:13.245Z,10564
2018-06-29T04:13:13.236Z,10888
2018-06-29T04:14:12.992Z,10664
2018-06-29T04:15:13.239Z,11096
2018-06-29T04:16:12.994Z,11492
2018-06-29T04:17:13.240Z,11432
2018-06-29T04:18:13.243Z,11788
2018-06-29T04:19:13.250Z,12252
2018-06-29T04:20:13.245Z,12824
2018-06-29T04:21:12.995Z,12736
2018-06-29T04:22:13.250Z,12832
2018-06-29T04:23:13.252Z,13632
2018-06-29T04:24:13.260Z,13920
2018-06-29T04:25:13.256Z,13888
2018-06-29T04:26:13.272Z,15264
2018-06-29T04:27:13.288Z,15552
2018-06-29T04:28:13.268Z,14880
2018-06-29T04:29:13.277Z,14944
2018-06-29T04:30:13.278Z,15648
2018-06-29T04:31:13.288Z,16544
2018-06-29T04:32:13.032Z,15040
2018-06-29T04:33:13.035Z,15712
2018-06-29T04:34:13.293Z,17504
2018-06-29T04:35:13.296Z,16512
2018-06-29T04:36:13.307Z,16416
2018-06-29T04:37:13.056Z,16832
2018-06-29T04:38:13.309Z,17408
2018-06-29T04:39:13.313Z,18592
2018-06-29T04:40:13.072Z,18880
2018-06-29T04:41:13.071Z,18240
2018-06-29T04:42:13.080Z,19328
2018-06-29T04:43:13.343Z,20096
2018-06-29T04:44:13.102Z,19008
2018-06-29T04:45:13.097Z,20224
2018-06-29T04:46:13.352Z,21472
2018-06-29T04:47:13.354Z,19744
2018-06-29T04:48:13.108Z,20320
2018-06-29T04:49:12.907Z,23424
2018-06-29T04:50:13.376Z,22176
2018-06-29T04:51:13.382Z,19968
2018-06-29T04:52:13.142Z,22624
2018-06-29T04:53:12.957Z,24512
2018-06-29T04:54:13.397Z,23168
2018-06-29T04:55:13.159Z,23584
2018-06-29T04:56:13.660Z,25376
2018-06-29T04:57:13.164Z,24992
2018-06-29T04:58:13.439Z,23936
2018-06-29T04:59:13.541Z,24288
2018-06-29T05:00:12.933Z,25088
2018-06-29T05:01:13.451Z,23840
2018-06-29T05:02:13.205Z,24256
2018-06-29T05:03:13.473Z,27072
2018-06-29T05:04:13.472Z,27072
2018-06-29T05:05:13.233Z,24640
2018-06-29T05:06:13.480Z,24992
2018-06-29T05:07:13.234Z,26336
2018-06-29T05:08:13.496Z,27104
2018-06-29T05:09:13.504Z,27552
2018-06-29T05:10:13.258Z,26528
2018-06-29T05:11:13.517Z,24864
2018-06-29T05:12:13.273Z,27456
2018-06-29T05:13:13.280Z,30656
2018-06-29T05:14:13.289Z,29504
2018-06-29T05:15:13.565Z,28928
2018-06-29T05:16:13.308Z,30944
2018-06-29T05:17:13.572Z,31520
2018-06-29T05:18:13.578Z,30816
2018-06-29T05:19:13.588Z,32224
2018-06-29T05:20:13.596Z,32288
2018-06-29T05:21:13.360Z,28896
2018-06-29T05:22:13.619Z,30080
2018-06-29T05:23:13.629Z,32928
2018-06-29T05:24:13.631Z,33024
2018-06-29T05:25:13.391Z,30752
2018-06-29T05:26:13.668Z,32448
2018-06-29T05:27:13.979Z,35616
2018-06-29T05:28:13.678Z,33760
2018-06-29T05:29:13.685Z,32384
2018-06-29T05:30:13.188Z,35392
2018-06-29T05:31:13.452Z,37728
2018-06-29T05:32:13.455Z,36608
2018-06-29T05:33:13.716Z,34624
2018-06-29T05:34:13.254Z,34720
2018-06-29T05:35:13.741Z,36064
2018-06-29T05:36:13.757Z,37952
2018-06-29T05:37:13.762Z,39968
2018-06-29T05:38:13.765Z,38816
2018-06-29T05:39:13.780Z,37056
2018-06-29T05:40:13.793Z,38080
2018-06-29T05:41:13.798Z,39488
2018-06-29T05:42:13.306Z,38528
2018-06-29T05:43:13.317Z,37696
2018-06-29T05:44:13.577Z,38752
2018-06-29T05:45:13.855Z,39648
2018-06-29T05:46:13.750Z,38656
2018-06-29T05:47:13.878Z,38176
2018-06-29T05:48:13.629Z,40416
2018-06-29T05:49:14.004Z,42720
2018-06-29T05:50:13.646Z,42560
2018-06-29T05:51:13.654Z,41824
2018-06-29T05:52:13.663Z,42432
2018-06-29T05:53:14.534Z,44416
2018-06-29T05:54:13.947Z,46752
2018-06-29T05:55:13.955Z,46720
2018-06-29T05:56:13.971Z,43936
2018-06-29T05:57:13.726Z,42976
2018-06-29T05:58:14.240Z,43264
2018-06-29T05:59:13.993Z,45024
2018-06-29T06:00:13.760Z,46688
2018-06-29T06:01:14.016Z,47584
2018-06-29T06:02:14.316Z,46432
2018-06-29T06:03:14.058Z,43424
2018-06-29T06:04:13.802Z,41024
2018-06-29T06:05:13.813Z,44160
2018-06-29T06:06:14.092Z,51520
2018-06-29T06:07:14.095Z,55776
2018-06-29T06:08:14.110Z,54464
2018-06-29T06:09:13.873Z,50528
2018-06-29T06:10:13.802Z,50016
2018-06-29T06:11:13.887Z,52992
2018-06-29T06:12:13.910Z,55104
2018-06-29T06:13:13.937Z,56032
2018-06-29T06:14:14.000Z,55648
2018-06-29T06:15:13.942Z,53440
2018-06-29T06:16:14.657Z,50752
2018-06-29T06:17:14.212Z,47936
2018-06-29T06:18:14.243Z,45984
2018-06-29T06:19:14.244Z,45312
2018-06-29T06:20:14.257Z,46176
2018-06-29T06:21:14.273Z,48736
2018-06-29T06:22:14.042Z,52256
2018-06-29T06:23:14.044Z,52448
2018-06-29T06:24:14.062Z,48096
2018-06-29T06:26:14.344Z,42016
2018-06-29T06:27:14.098Z,42688
2018-06-29T06:28:14.117Z,41888
2018-06-29T06:29:14.629Z,39584
2018-06-29T06:30:14.403Z,38496
2018-06-29T06:32:14.433Z,40640
2018-06-29T06:33:14.346Z,40800
2018-06-29T06:34:14.260Z,40448
2018-06-29T06:35:14.474Z,39712
2018-06-29T06:36:14.512Z,37024
2018-06-29T06:37:14.515Z,33856
2018-06-29T06:38:14.574Z,33760
2018-06-29T06:39:14.289Z,38752
2018-06-29T06:40:14.567Z,46912
2018-06-29T06:41:14.335Z,55808
2018-06-29T06:42:14.596Z,62304
2018-06-29T06:43:14.612Z,64544
2018-06-29T06:44:14.375Z,66208
2018-06-29T06:45:14.395Z,68320
2018-06-29T06:46:14.419Z,67136
2018-06-29T06:47:14.708Z,65728
2018-06-29T06:48:14.706Z,64800
2018-06-29T06:49:14.476Z,63648
2018-06-29T06:50:14.493Z,64864
2018-06-29T06:51:14.774Z,66528
2018-06-29T06:52:14.794Z,71872
2018-06-29T06:53:14.810Z,78656
2018-06-29T06:54:14.553Z,83552
2018-06-29T06:55:14.579Z,89888
2018-06-29T06:56:14.850Z,95360
2018-06-29T06:57:14.871Z,103072
2018-06-29T06:58:14.630Z,112032
2018-06-29T06:59:14.681Z,119936
2018-06-29T07:00:14.943Z,124384
2018-06-29T07:01:14.943Z,121408
2018-06-29T07:02:15.006Z,115680
2018-06-29T07:03:14.728Z,110848
2018-06-29T07:04:14.744Z,104096
2018-06-29T07:05:15.050Z,90112
2018-06-29T07:06:15.030Z,78464
2018-06-29T07:07:15.050Z,74272
2018-06-29T07:08:14.578Z,76320
2018-06-29T07:09:15.107Z,89152
2018-06-29T07:10:15.147Z,114784
2018-06-29T07:11:14.930Z,141632
2018-06-29T07:12:15.143Z,158464
2018-06-29T07:13:14.909Z,169344
2018-06-29T07:14:14.707Z,172640
2018-06-29T07:15:15.197Z,171072
2018-06-29T07:16:15.213Z,164800
2018-06-29T07:17:15.235Z,148320
2018-06-29T07:18:15.492Z,132416
2018-06-29T07:19:15.290Z,129568
2018-06-29T07:20:15.335Z,138592
2018-06-29T07:21:15.306Z,156896
2018-06-29T07:22:15.325Z,169664
2018-06-29T07:23:15.341Z,172960
2018-06-29T07:24:15.366Z,174624
2018-06-29T07:25:14.880Z,174880
2018-06-29T07:26:15.413Z,163552
2018-06-29T07:27:14.920Z,145984
2018-06-29T07:28:14.955Z,133184
2018-06-29T07:29:15.497Z,127520
2018-06-29T07:30:15.593Z,127296
2018-06-29T07:31:15.496Z,123680
2018-06-29T07:32:15.772Z,109728
2018-06-29T07:33:15.280Z,91904
2018-06-29T07:34:15.564Z,84128
2018-06-29T07:35:15.583Z,80672
2018-06-29T07:36:15.593Z,82304
2018-06-29T07:37:15.635Z,87328
2018-06-29T07:38:15.629Z,93184
2018-06-29T07:39:15.415Z,98016
2018-06-29T07:40:15.675Z,102560
2018-06-29T07:41:15.919Z,104352
2018-06-29T07:42:15.448Z,106208
2018-06-29T07:43:15.745Z,107520
2018-06-29T07:44:15.236Z,101824
2018-06-29T07:45:15.509Z,90304
2018-06-29T07:46:15.797Z,77504
2018-06-29T07:47:15.854Z,41696
2018-06-29T07:48:15.833Z,34848
2018-06-29T07:49:15.834Z,27456
2018-06-29T07:50:15.876Z,20832
2018-06-29T07:51:15.368Z,16864
2018-06-29T07:52:15.640Z,14240
2018-06-29T07:53:15.934Z,15072
2018-06-29T07:54:15.674Z,16000
2018-06-29T07:55:15.945Z,15680
2018-06-29T07:56:15.962Z,18528
2018-06-29T07:57:16.133Z,21216
2018-06-29T07:58:16.632Z,27040
2018-06-29T07:59:16.026Z,29056
2018-06-29T08:00:15.790Z,30112
2018-06-29T08:01:16.057Z,27872
2018-06-29T08:02:16.152Z,30816
2018-06-29T08:03:16.341Z,30688
2018-06-29T08:04:15.598Z,40256
2018-06-29T08:05:16.133Z,45152
2018-06-29T08:06:15.881Z,46304
2018-06-29T08:07:16.157Z,44384
2018-06-29T08:08:16.169Z,46560
2018-06-29T08:09:16.184Z,49792
2018-06-29T08:10:16.200Z,48832
2018-06-29T08:11:16.221Z,44864
2018-06-29T08:12:15.982Z,43808
2018-06-29T08:13:15.994Z,49600
2018-06-29T08:14:16.017Z,60064
2018-06-29T08:15:16.024Z,69696
2018-06-29T08:16:16.044Z,69536
2018-06-29T08:17:16.312Z,61024
2018-06-29T08:18:16.348Z,53184
2018-06-29T08:19:16.097Z,50944
2018-06-29T08:20:15.877Z,50784
2018-06-29T08:21:16.115Z,54784
2018-06-29T08:22:16.384Z,57920
2018-06-29T08:23:15.641Z,63200
2018-06-29T08:24:16.539Z,69536
2018-06-29T08:25:16.180Z,78496
2018-06-29T08:26:16.459Z,90880
2018-06-29T08:27:15.964Z,100800
2018-06-29T08:28:16.232Z,99040
2018-06-29T08:29:16.235Z,94464
2018-06-29T08:30:16.505Z,88576
2018-06-29T08:31:16.534Z,85376
2018-06-29T08:32:16.545Z,84384
2018-06-29T08:33:16.549Z,87392
2018-06-29T08:34:16.829Z,91520
2018-06-29T08:35:16.580Z,90976
2018-06-29T08:36:16.093Z,89600
2018-06-29T08:37:16.355Z,88704
2018-06-29T08:38:16.843Z,88064
2018-06-29T08:39:16.852Z,83936
2018-06-29T08:40:16.411Z,79264
2018-06-29T08:41:16.416Z,76576
2018-06-29T08:42:16.179Z,76576
2018-06-29T08:43:16.707Z,80256
2018-06-29T08:44:16.644Z,86080
2018-06-29T08:45:16.738Z,87072
2018-06-29T08:46:16.747Z,77728
2018-06-29T08:47:17.118Z,64864
2018-06-29T08:48:16.800Z,60352
2018-06-29T08:49:16.824Z,67968
2018-06-29T08:50:16.835Z,64416
2018-06-29T08:51:16.835Z,70816
2018-06-29T08:52:17.259Z,72896
2018-06-29T08:53:17.354Z,75808
2018-06-29T08:54:16.393Z,77248
2018-06-29T08:55:16.978Z,78848
2018-06-29T08:56:16.657Z,84992
2018-06-29T08:57:16.907Z,86624
2018-06-29T08:58:16.674Z,87840
2018-06-29T08:59:16.962Z,88000
2018-06-29T09:00:16.448Z,91456
2018-06-29T09:01:16.974Z,80832
2018-06-29T09:02:16.979Z,41440
2018-06-29T09:03:16.737Z,8556
2018-06-29T09:04:17.013Z,7804
2018-06-29T09:05:17.287Z,7764
2018-06-29T09:06:16.800Z,7808
2018-06-29T09:07:16.549Z,7856
2018-06-29T09:08:17.009Z,7892
2018-06-29T09:09:16.827Z,7928
2018-06-29T09:10:17.115Z,7936
2018-06-29T09:11:16.589Z,7916
2018-06-29T09:12:16.644Z,7892
2018-06-29T09:13:16.875Z,7916
2018-06-29T09:14:16.622Z,7888
2018-06-29T09:15:17.145Z,7876
2018-06-29T09:16:16.896Z,7888
2018-06-29T09:17:16.901Z,7880
2018-06-29T09:18:17.158Z,7828
2018-06-29T09:19:17.324Z,7804
2018-06-29T09:20:17.183Z,7768
2018-06-29T09:21:17.203Z,7696
2018-06-29T09:22:16.941Z,7684
2018-06-29T09:23:16.704Z,7704
2018-06-29T09:24:17.257Z,7768
2018-06-29T09:25:16.971Z,7820
2018-06-29T09:26:16.994Z,7848
2018-06-29T09:27:29.716Z,7772
2018-06-29T09:28:17.236Z,7752
2018-06-29T09:29:17.249Z,7756
2018-06-29T09:30:17.253Z,7764
2018-06-29T09:31:17.030Z,7756
2018-06-29T09:32:17.283Z,7664
2018-06-29T09:33:17.046Z,7484
2018-06-29T09:34:17.020Z,7408
2018-06-29T09:35:17.297Z,7428
2018-06-29T09:36:17.713Z,7468
2018-06-29T09:37:17.293Z,7512
2018-06-29T09:38:16.797Z,7552
2018-06-29T09:39:17.308Z,7628
2018-06-29T09:40:16.815Z,7728
2018-06-29T09:41:17.322Z,7876
2018-06-29T09:42:17.334Z,7944
2018-06-29T09:43:17.337Z,8036
2018-06-29T09:44:17.337Z,8164
2018-06-29T09:45:17.331Z,8336
2018-06-29T09:46:17.092Z,9332
2018-06-29T09:47:17.357Z,9984
2018-06-29T09:48:17.570Z,10208
2018-06-29T09:49:17.398Z,10424
2018-06-29T09:50:17.384Z,10608
2018-06-29T09:51:17.111Z,10936
2018-06-29T09:52:29.851Z,11340
2018-06-29T09:53:17.144Z,11612
2018-06-29T09:54:17.128Z,11900
2018-06-29T09:55:17.383Z,12312
2018-06-29T09:56:17.162Z,13012
2018-06-29T09:57:17.401Z,13888
2018-06-29T09:58:17.408Z,14088
2018-06-29T09:59:17.421Z,13936
2018-06-29T10:00:16.900Z,14412
2018-06-29T10:01:17.805Z,14988
2018-06-29T10:02:17.410Z,15540
2018-06-29T10:03:17.418Z,15888
2018-06-29T10:04:16.923Z,16012
2018-06-29T10:05:17.429Z,16332
2018-06-29T10:06:17.179Z,16896
2018-06-29T10:07:17.693Z,17376
2018-06-29T10:08:17.461Z,17920
2018-06-29T10:09:17.454Z,18752
2018-06-29T10:10:17.203Z,19168
2018-06-29T10:11:17.210Z,19328
2018-06-29T10:12:17.267Z,19200
2018-06-29T10:13:17.502Z,18944
2018-06-29T10:14:17.757Z,18432
2018-06-29T10:15:17.498Z,17696
2018-06-29T10:16:30.220Z,16832
2018-06-29T10:17:17.491Z,16052
2018-06-29T10:18:17.248Z,15224
2018-06-29T10:19:17.509Z,14396
2018-06-29T10:20:18.139Z,13664
2018-06-29T10:21:17.014Z,13048
2018-06-29T10:22:18.141Z,12444
2018-06-29T10:23:17.042Z,11996
2018-06-29T10:24:17.683Z,11512
2018-06-29T10:25:17.835Z,11020
2018-06-29T10:26:30.303Z,10576
2018-06-29T10:27:17.585Z,10320
2018-06-29T10:28:18.222Z,10312
2018-06-29T10:29:17.313Z,10332
2018-06-29T10:30:24.567Z,10272
2018-06-29T10:31:20.064Z,10232
2018-06-29T10:32:17.608Z,10240
2018-06-29T10:33:17.589Z,10340
2018-06-29T10:34:17.595Z,10568
2018-06-29T10:35:17.608Z,10908
2018-06-29T10:36:17.633Z,11340
2018-06-29T10:37:17.616Z,11848
2018-06-29T10:38:17.399Z,12436
2018-06-29T10:39:17.113Z,13004
2018-06-29T10:40:17.379Z,13576
2018-06-29T10:41:17.632Z,14224
2018-06-29T10:42:17.654Z,15100
2018-06-29T10:43:17.138Z,15756
2018-06-29T10:44:17.667Z,16276
2018-06-29T10:45:17.659Z,16800
2018-06-29T10:46:17.681Z,17216
2018-06-29T10:47:17.673Z,17568
2018-06-29T10:48:17.416Z,17824
2018-06-29T10:49:17.681Z,17824
2018-06-29T10:50:17.197Z,17600
2018-06-29T10:51:17.183Z,17152
2018-06-29T10:52:17.705Z,16348
2018-06-29T10:53:17.718Z,15236
2018-06-29T10:54:17.744Z,14292
2018-06-29T10:55:17.464Z,13460
2018-06-29T10:56:17.483Z,12840
2018-06-29T10:57:17.728Z,12176
2018-06-29T10:58:17.764Z,11732
2018-06-29T10:59:17.736Z,11120
2018-06-29T11:00:17.242Z,10396
2018-06-29T11:01:17.749Z,9668
2018-06-29T11:02:17.762Z,9560
2018-06-29T11:03:17.762Z,9624
2018-06-29T11:04:17.789Z,9808
2018-06-29T11:05:17.765Z,10164
2018-06-29T11:06:17.783Z,11000
2018-06-29T11:07:17.544Z,12092
2018-06-29T11:08:17.801Z,12752
2018-06-29T11:09:18.048Z,13556
2018-06-29T11:10:17.300Z,14208
2018-06-29T11:11:17.563Z,14816
2018-06-29T11:12:17.825Z,14920
2018-06-29T11:13:17.816Z,14540
2018-06-29T11:14:18.033Z,14284
2018-06-29T11:15:17.836Z,14016
2018-06-29T11:16:17.835Z,13488
2018-06-29T11:17:17.855Z,12984
2018-06-29T11:18:17.588Z,12512
2018-06-29T11:19:17.342Z,12220
2018-06-29T11:20:17.857Z,12360
2018-06-29T11:21:17.873Z,12504
2018-06-29T11:22:17.880Z,12344
2018-06-29T11:23:17.875Z,12056
2018-06-29T11:24:17.124Z,11848
2018-06-29T11:25:17.882Z,11712
2018-06-29T11:26:17.630Z,11772
2018-06-29T11:27:17.888Z,11888
2018-06-29T11:28:17.665Z,12380
2018-06-29T11:29:17.897Z,12672
2018-06-29T11:30:18.056Z,12812
2018-06-29T11:31:17.695Z,12900
2018-06-29T11:32:17.413Z,13044
2018-06-29T11:33:17.927Z,13224
2018-06-29T11:34:17.926Z,13484
2018-06-29T11:35:17.938Z,13832
2018-06-29T11:36:17.964Z,14216
2018-06-29T11:37:17.733Z,14660
2018-06-29T11:38:17.957Z,15204
2018-06-29T11:39:17.710Z,15812
2018-06-29T11:40:17.708Z,16368
2018-06-29T11:41:17.720Z,17024
2018-06-29T11:42:17.988Z,17664
2018-06-29T11:43:17.983Z,18400
2018-06-29T11:44:18.000Z,19072
2018-06-29T11:45:18.002Z,19488
2018-06-29T11:46:17.950Z,19648
2018-06-29T11:47:18.009Z,19840
2018-06-29T11:48:17.764Z,19968
2018-06-29T11:49:18.037Z,20096
2018-06-29T11:50:18.030Z,20224
2018-06-29T11:51:17.795Z,20288
2018-06-29T11:52:17.781Z,20320
2018-06-29T11:53:17.783Z,20256
2018-06-29T11:54:18.049Z,20096
2018-06-29T11:55:17.798Z,19936
2018-06-29T11:56:18.063Z,19616
2018-06-29T11:57:18.076Z,19168
2018-06-29T11:58:18.083Z,18656
2018-06-29T11:59:17.829Z,18112
2018-06-29T12:00:18.086Z,17568
2018-06-29T12:01:17.846Z,16928
2018-06-29T12:02:18.104Z,16288
2018-06-29T12:03:18.115Z,15520
2018-06-29T12:04:17.864Z,14908
2018-06-29T12:05:18.118Z,14436
2018-06-29T12:06:17.892Z,14116
2018-06-29T12:07:18.380Z,13828
2018-06-29T12:08:18.143Z,13588
2018-06-29T12:09:18.155Z,13544
2018-06-29T12:10:18.155Z,13468
2018-06-29T12:11:17.918Z,13476
2018-06-29T12:12:18.270Z,13472
2018-06-29T12:13:17.929Z,13500
2018-06-29T12:14:18.183Z,13560
2018-06-29T12:15:18.188Z,13620
2018-06-29T12:16:18.197Z,13616
2018-06-29T12:17:17.957Z,13768
2018-06-29T12:18:17.468Z,13664
2018-06-29T12:19:17.993Z,13328
2018-06-29T12:20:17.979Z,13140
2018-06-29T12:21:18.269Z,12688
2018-06-29T12:22:18.230Z,12124
2018-06-29T12:23:18.050Z,11600
2018-06-29T12:24:17.994Z,11068
2018-06-29T12:25:18.246Z,10540
2018-06-29T12:26:18.272Z,10168
2018-06-29T12:27:18.020Z,9852
2018-06-29T12:28:18.300Z,9732
2018-06-29T12:29:17.770Z,9640
2018-06-29T12:30:18.282Z,9500
2018-06-29T12:31:18.031Z,9268
2018-06-29T12:32:18.043Z,9032
2018-06-29T12:33:18.042Z,8848
2018-06-29T12:34:18.308Z,8712
2018-06-29T12:35:18.323Z,8620
2018-06-29T12:36:18.314Z,8528
2018-06-29T12:37:18.077Z,8640
2018-06-29T12:38:18.074Z,8812
2018-06-29T12:39:18.349Z,8928
2018-06-29T12:40:18.367Z,8976
2018-06-29T12:41:18.555Z,8976
2018-06-29T12:42:18.128Z,8932
2018-06-29T12:43:18.115Z,8720
2018-06-29T12:44:18.360Z,8408
2018-06-29T12:45:18.375Z,8224
2018-06-29T12:46:18.202Z,7968
2018-06-29T12:47:18.383Z,7712
2018-06-29T12:48:18.401Z,7416
2018-06-29T12:49:18.416Z,7108
2018-06-29T12:50:18.411Z,6916
2018-06-29T12:51:18.426Z,6772
2018-06-29T12:52:18.172Z,6648
2018-06-29T12:53:18.198Z,6504
2018-06-29T12:54:18.199Z,6440
2018-06-29T12:55:18.214Z,6336
2018-06-29T12:56:18.176Z,6232
2018-06-29T12:57:18.650Z,6132
2018-06-29T12:58:18.451Z,6120
2018-06-29T12:59:18.485Z,6092
2018-06-29T13:00:18.466Z,6056
2018-06-29T13:01:18.204Z,6024
2018-06-29T13:02:18.465Z,5996
2018-06-29T13:03:18.481Z,5984
2018-06-29T13:04:18.212Z,5976
2018-06-29T13:05:18.885Z,5968
2018-06-29T13:06:18.224Z,5968
2018-06-29T13:07:18.483Z,5960
2018-06-29T13:08:18.675Z,5968
2018-06-29T13:09:18.486Z,5988
2018-06-29T13:10:18.496Z,5996
2018-06-29T13:11:18.254Z,6008
2018-06-29T13:12:18.257Z,6024
2018-06-29T13:13:18.530Z,6060
2018-06-29T13:14:19.112Z,6116
2018-06-29T13:15:18.271Z,6156
2018-06-29T13:16:18.284Z,6208
2018-06-29T13:17:18.297Z,6264
2018-06-29T13:18:18.534Z,6320
2018-06-29T13:19:18.539Z,6404